sensor_id;sensor_type;location;lat;lon;timestamp;temperature;humidity
20125;DHT22;10223;50.862;4.360;2022-09-27T00:00:28;11.10;99.90
20125;DHT22;10223;50.862;4.360;2022-09-27T00:02:55;11.20;99.90
20125;DHT22;10223;50.862;4.360;2022-09-27T00:05:22;11.10;99.90
20125;DHT22;10223;50.862;4.360;2022-09-27T00:07:49;11.00;99.90
20125;DHT22;10223;50.862;4.360;2022-09-27T00:10:16;11.00;99.90
20125;DHT22;10223;50.862;4.360;2022-09-27T00:12:44;11.10;99.90
20125;DHT22;10223;50.862;4.360;2022-09-27T00:15:12;11.10;99.90
20125;DHT22;10223;50.862;4.360;2022-09-27T00:17:40;11.00;99.90
20125;DHT22;10223;50.862;4.360;2022-09-27T00:20:08;11.00;99.90
20125;DHT22;10223;50.862;4.360;2022-09-27T00:22:35;11.00;99.90
20125;DHT22;10223;50.862;4.360;2022-09-27T00:25:03;10.90;99.90
20125;DHT22;10223;50.862;4.360;2022-09-27T00:27:32;10.90;99.90
20125;DHT22;10223;50.862;4.360;2022-09-27T00:30:00;11.00;99.90
20125;DHT22;10223;50.862;4.360;2022-09-27T00:32:27;11.00;99.90
20125;DHT22;10223;50.862;4.360;2022-09-27T00:34:54;11.00;99.90
20125;DHT22;10223;50.862;4.360;2022-09-27T00:37:21;11.00;99.90
20125;DHT22;10223;50.862;4.360;2022-09-27T00:39:48;11.00;99.90
20125;DHT22;10223;50.862;4.360;2022-09-27T00:42:15;11.00;99.90
20125;DHT22;10223;50.862;4.360;2022-09-27T00:45:08;11.00;99.90
20125;DHT22;10223;50.862;4.360;2022-09-27T00:47:42;10.90;99.90
20125;DHT22;10223;50.862;4.360;2022-09-27T00:50:21;11.00;99.90
20125;DHT22;10223;50.862;4.360;2022-09-27T00:52:53;11.00;99.90
20125;DHT22;10223;50.862;4.360;2022-09-27T00:55:25;11.00;99.90
20125;DHT22;10223;50.862;4.360;2022-09-27T00:57:55;11.10;99.90
20125;DHT22;10223;50.862;4.360;2022-09-27T01:00:23;11.20;99.90
20125;DHT22;10223;50.862;4.360;2022-09-27T01:02:52;11.20;99.90
20125;DHT22;10223;50.862;4.360;2022-09-27T01:05:22;11.10;99.90
20125;DHT22;10223;50.862;4.360;2022-09-27T01:07:50;11.00;99.90
20125;DHT22;10223;50.862;4.360;2022-09-27T01:10:21;11.00;99.90
20125;DHT22;10223;50.862;4.360;2022-09-27T01:12:57;11.00;99.90
20125;DHT22;10223;50.862;4.360;2022-09-27T01:15:31;11.10;99.90
20125;DHT22;10223;50.862;4.360;2022-09-27T01:18:10;10.90;99.90
20125;DHT22;10223;50.862;4.360;2022-09-27T01:21:01;10.90;99.90
20125;DHT22;10223;50.862;4.360;2022-09-27T01:23:53;11.00;99.90
20125;DHT22;10223;50.862;4.360;2022-09-27T01:26:41;11.10;99.90
20125;DHT22;10223;50.862;4.360;2022-09-27T01:29:17;11.20;99.90
20125;DHT22;10223;50.862;4.360;2022-09-27T01:31:54;11.10;99.90
20125;DHT22;10223;50.862;4.360;2022-09-27T01:34:28;10.90;99.90
20125;DHT22;10223;50.862;4.360;2022-09-27T01:37:04;11.00;99.90
20125;DHT22;10223;50.862;4.360;2022-09-27T01:39:39;11.00;99.90
20125;DHT22;10223;50.862;4.360;2022-09-27T01:42:13;11.00;99.90
20125;DHT22;10223;50.862;4.360;2022-09-27T01:44:45;11.00;99.90
20125;DHT22;10223;50.862;4.360;2022-09-27T01:47:18;11.00;99.90
20125;DHT22;10223;50.862;4.360;2022-09-27T01:49:51;11.00;99.90
20125;DHT22;10223;50.862;4.360;2022-09-27T01:52:22;11.00;99.90
20125;DHT22;10223;50.862;4.360;2022-09-27T01:54:56;11.00;99.90
20125;DHT22;10223;50.862;4.360;2022-09-27T01:57:26;11.00;99.90
20125;DHT22;10223;50.862;4.360;2022-09-27T01:59:58;10.90;99.90
20125;DHT22;10223;50.862;4.360;2022-09-27T02:02:32;10.90;99.90
20125;DHT22;10223;50.862;4.360;2022-09-27T02:05:02;10.90;99.90
20125;DHT22;10223;50.862;4.360;2022-09-27T02:07:34;10.90;99.90
20125;DHT22;10223;50.862;4.360;2022-09-27T02:10:05;10.90;99.90
20125;DHT22;10223;50.862;4.360;2022-09-27T02:12:39;10.90;99.90
20125;DHT22;10223;50.862;4.360;2022-09-27T02:15:13;10.90;99.90
20125;DHT22;10223;50.862;4.360;2022-09-27T02:17:45;10.90;99.90
20125;DHT22;10223;50.862;4.360;2022-09-27T02:20:18;10.90;99.90
20125;DHT22;10223;50.862;4.360;2022-09-27T02:22:50;10.90;99.90
20125;DHT22;10223;50.862;4.360;2022-09-27T02:25:23;11.00;99.90
20125;DHT22;10223;50.862;4.360;2022-09-27T02:27:56;10.90;99.90
20125;DHT22;10223;50.862;4.360;2022-09-27T02:30:24;10.80;99.90
20125;DHT22;10223;50.862;4.360;2022-09-27T02:32:52;10.70;99.90
20125;DHT22;10223;50.862;4.360;2022-09-27T02:35:23;10.80;99.90
20125;DHT22;10223;50.862;4.360;2022-09-27T02:37:51;10.80;99.90
20125;DHT22;10223;50.862;4.360;2022-09-27T02:40:18;10.70;99.90
20125;DHT22;10223;50.862;4.360;2022-09-27T02:42:46;10.60;99.90
20125;DHT22;10223;50.862;4.360;2022-09-27T02:45:15;10.50;99.90
20125;DHT22;10223;50.862;4.360;2022-09-27T02:47:58;10.40;99.90
20125;DHT22;10223;50.862;4.360;2022-09-27T02:50:55;10.40;99.90
20125;DHT22;10223;50.862;4.360;2022-09-27T02:53:34;10.30;99.90
20125;DHT22;10223;50.862;4.360;2022-09-27T02:56:09;10.30;99.90
20125;DHT22;10223;50.862;4.360;2022-09-27T02:58:46;10.20;99.90
20125;DHT22;10223;50.862;4.360;2022-09-27T03:01:22;10.20;99.90
20125;DHT22;10223;50.862;4.360;2022-09-27T03:03:58;10.40;99.90
20125;DHT22;10223;50.862;4.360;2022-09-27T03:06:27;10.50;99.90
20125;DHT22;10223;50.862;4.360;2022-09-27T03:08:55;10.50;99.90
20125;DHT22;10223;50.862;4.360;2022-09-27T03:11:22;10.60;99.90
20125;DHT22;10223;50.862;4.360;2022-09-27T03:13:49;10.70;99.90
20125;DHT22;10223;50.862;4.360;2022-09-27T03:16:16;10.80;99.90
20125;DHT22;10223;50.862;4.360;2022-09-27T03:18:43;10.80;99.90
20125;DHT22;10223;50.862;4.360;2022-09-27T03:21:12;10.90;99.90
20125;DHT22;10223;50.862;4.360;2022-09-27T03:23:38;10.90;99.90
20125;DHT22;10223;50.862;4.360;2022-09-27T03:26:05;11.00;99.90
20125;DHT22;10223;50.862;4.360;2022-09-27T03:28:32;11.00;99.90
20125;DHT22;10223;50.862;4.360;2022-09-27T03:31:00;10.80;99.90
20125;DHT22;10223;50.862;4.360;2022-09-27T03:33:27;10.70;99.90
20125;DHT22;10223;50.862;4.360;2022-09-27T03:35:54;10.80;99.90
20125;DHT22;10223;50.862;4.360;2022-09-27T03:38:22;10.80;99.90
20125;DHT22;10223;50.862;4.360;2022-09-27T03:40:49;10.70;99.90
20125;DHT22;10223;50.862;4.360;2022-09-27T03:43:16;10.40;99.90
20125;DHT22;10223;50.862;4.360;2022-09-27T03:45:43;10.40;99.90
20125;DHT22;10223;50.862;4.360;2022-09-27T03:48:10;10.30;99.90
20125;DHT22;10223;50.862;4.360;2022-09-27T03:50:37;10.00;99.90
20125;DHT22;10223;50.862;4.360;2022-09-27T03:53:04;9.90;99.90
20125;DHT22;10223;50.862;4.360;2022-09-27T03:55:33;9.90;99.90
20125;DHT22;10223;50.862;4.360;2022-09-27T03:58:00;10.00;99.90
20125;DHT22;10223;50.862;4.360;2022-09-27T04:00:27;9.90;99.90
20125;DHT22;10223;50.862;4.360;2022-09-27T04:02:55;9.80;99.90
20125;DHT22;10223;50.862;4.360;2022-09-27T04:05:21;9.90;99.90
20125;DHT22;10223;50.862;4.360;2022-09-27T04:07:49;10.00;99.90
20125;DHT22;10223;50.862;4.360;2022-09-27T04:10:16;10.00;99.90
20125;DHT22;10223;50.862;4.360;2022-09-27T04:12:44;10.00;99.90
20125;DHT22;10223;50.862;4.360;2022-09-27T04:15:11;10.00;99.90
20125;DHT22;10223;50.862;4.360;2022-09-27T04:17:40;10.10;99.90
20125;DHT22;10223;50.862;4.360;2022-09-27T04:20:08;10.10;99.90
20125;DHT22;10223;50.862;4.360;2022-09-27T04:22:38;10.10;99.90
20125;DHT22;10223;50.862;4.360;2022-09-27T04:25:06;10.00;99.90
20125;DHT22;10223;50.862;4.360;2022-09-27T04:27:33;9.90;99.90
20125;DHT22;10223;50.862;4.360;2022-09-27T04:30:02;9.90;99.90
20125;DHT22;10223;50.862;4.360;2022-09-27T04:32:31;9.90;99.90
20125;DHT22;10223;50.862;4.360;2022-09-27T04:34:57;9.90;99.90
20125;DHT22;10223;50.862;4.360;2022-09-27T04:37:42;9.90;99.90
20125;DHT22;10223;50.862;4.360;2022-09-27T04:40:09;9.90;99.90
20125;DHT22;10223;50.862;4.360;2022-09-27T04:42:36;9.80;99.90
20125;DHT22;10223;50.862;4.360;2022-09-27T04:45:06;9.90;99.90
20125;DHT22;10223;50.862;4.360;2022-09-27T04:47:32;10.00;99.90
20125;DHT22;10223;50.862;4.360;2022-09-27T04:49:59;10.00;99.90
20125;DHT22;10223;50.862;4.360;2022-09-27T04:52:26;10.00;99.90
20125;DHT22;10223;50.862;4.360;2022-09-27T04:54:53;9.80;99.90
20125;DHT22;10223;50.862;4.360;2022-09-27T04:57:20;9.90;99.90
20125;DHT22;10223;50.862;4.360;2022-09-27T04:59:47;10.00;99.90
20125;DHT22;10223;50.862;4.360;2022-09-27T05:02:17;10.00;99.90
20125;DHT22;10223;50.862;4.360;2022-09-27T05:04:44;10.00;99.90
20125;DHT22;10223;50.862;4.360;2022-09-27T05:07:11;9.90;99.90
20125;DHT22;10223;50.862;4.360;2022-09-27T05:09:38;10.00;99.90
20125;DHT22;10223;50.862;4.360;2022-09-27T05:12:06;10.10;99.90
20125;DHT22;10223;50.862;4.360;2022-09-27T05:14:33;10.00;99.90
20125;DHT22;10223;50.862;4.360;2022-09-27T05:17:00;10.10;99.90
20125;DHT22;10223;50.862;4.360;2022-09-27T05:19:28;10.00;99.90
20125;DHT22;10223;50.862;4.360;2022-09-27T05:21:55;10.00;99.90
20125;DHT22;10223;50.862;4.360;2022-09-27T05:24:22;10.00;99.90
20125;DHT22;10223;50.862;4.360;2022-09-27T05:26:48;10.00;99.90
20125;DHT22;10223;50.862;4.360;2022-09-27T05:29:18;10.10;99.90
20125;DHT22;10223;50.862;4.360;2022-09-27T05:31:48;10.00;99.90
20125;DHT22;10223;50.862;4.360;2022-09-27T05:34:15;10.00;99.90
20125;DHT22;10223;50.862;4.360;2022-09-27T05:36:47;10.00;99.90
20125;DHT22;10223;50.862;4.360;2022-09-27T05:39:14;10.00;99.90
20125;DHT22;10223;50.862;4.360;2022-09-27T05:41:42;9.80;99.90
20125;DHT22;10223;50.862;4.360;2022-09-27T05:44:09;9.80;99.90
20125;DHT22;10223;50.862;4.360;2022-09-27T05:46:36;9.80;99.90
20125;DHT22;10223;50.862;4.360;2022-09-27T05:49:03;9.80;99.90
20125;DHT22;10223;50.862;4.360;2022-09-27T05:51:30;9.80;99.90
20125;DHT22;10223;50.862;4.360;2022-09-27T05:53:58;9.70;99.90
20125;DHT22;10223;50.862;4.360;2022-09-27T05:56:25;9.80;99.90
20125;DHT22;10223;50.862;4.360;2022-09-27T05:58:52;9.70;99.90
20125;DHT22;10223;50.862;4.360;2022-09-27T06:01:19;9.70;99.90
20125;DHT22;10223;50.862;4.360;2022-09-27T06:03:46;9.70;99.90
20125;DHT22;10223;50.862;4.360;2022-09-27T06:06:14;9.60;99.90
20125;DHT22;10223;50.862;4.360;2022-09-27T06:08:41;9.50;99.90
20125;DHT22;10223;50.862;4.360;2022-09-27T06:11:11;9.50;99.90
20125;DHT22;10223;50.862;4.360;2022-09-27T06:13:39;9.60;99.90
20125;DHT22;10223;50.862;4.360;2022-09-27T06:16:07;9.50;99.90
20125;DHT22;10223;50.862;4.360;2022-09-27T06:18:35;9.50;99.90
20125;DHT22;10223;50.862;4.360;2022-09-27T06:21:04;9.50;99.90
20125;DHT22;10223;50.862;4.360;2022-09-27T06:23:31;9.60;99.90
20125;DHT22;10223;50.862;4.360;2022-09-27T06:26:00;9.60;99.90
20125;DHT22;10223;50.862;4.360;2022-09-27T06:28:29;9.60;99.90
20125;DHT22;10223;50.862;4.360;2022-09-27T06:30:57;9.50;99.90
20125;DHT22;10223;50.862;4.360;2022-09-27T06:33:26;9.50;99.90
20125;DHT22;10223;50.862;4.360;2022-09-27T06:35:53;9.50;99.90
20125;DHT22;10223;50.862;4.360;2022-09-27T06:38:21;9.40;99.90
20125;DHT22;10223;50.862;4.360;2022-09-27T06:40:49;9.40;99.90
20125;DHT22;10223;50.862;4.360;2022-09-27T06:43:17;9.50;99.90
20125;DHT22;10223;50.862;4.360;2022-09-27T06:45:47;9.50;99.90
20125;DHT22;10223;50.862;4.360;2022-09-27T06:48:15;9.60;99.90
20125;DHT22;10223;50.862;4.360;2022-09-27T06:50:44;9.60;99.90
20125;DHT22;10223;50.862;4.360;2022-09-27T06:53:12;9.60;99.90
20125;DHT22;10223;50.862;4.360;2022-09-27T06:55:39;9.70;99.90
20125;DHT22;10223;50.862;4.360;2022-09-27T06:58:08;9.60;99.90
20125;DHT22;10223;50.862;4.360;2022-09-27T07:00:54;9.70;99.90
20125;DHT22;10223;50.862;4.360;2022-09-27T07:03:23;9.80;99.90
20125;DHT22;10223;50.862;4.360;2022-09-27T07:05:57;9.80;99.90
20125;DHT22;10223;50.862;4.360;2022-09-27T07:08:24;9.90;99.90
20125;DHT22;10223;50.862;4.360;2022-09-27T07:10:53;9.90;99.90
20125;DHT22;10223;50.862;4.360;2022-09-27T07:13:20;9.90;99.90
20125;DHT22;10223;50.862;4.360;2022-09-27T07:15:48;9.90;99.90
20125;DHT22;10223;50.862;4.360;2022-09-27T07:18:16;10.00;99.90
20125;DHT22;10223;50.862;4.360;2022-09-27T07:20:43;10.00;99.90
20125;DHT22;10223;50.862;4.360;2022-09-27T07:23:10;10.10;99.90
20125;DHT22;10223;50.862;4.360;2022-09-27T07:25:38;10.10;99.90
20125;DHT22;10223;50.862;4.360;2022-09-27T07:28:06;10.10;99.90
20125;DHT22;10223;50.862;4.360;2022-09-27T07:30:35;10.30;99.90
20125;DHT22;10223;50.862;4.360;2022-09-27T07:33:04;10.40;99.90
20125;DHT22;10223;50.862;4.360;2022-09-27T07:35:33;10.30;99.90
20125;DHT22;10223;50.862;4.360;2022-09-27T07:38:01;10.40;99.90
20125;DHT22;10223;50.862;4.360;2022-09-27T07:40:29;10.40;99.90
20125;DHT22;10223;50.862;4.360;2022-09-27T07:42:57;10.30;99.90
20125;DHT22;10223;50.862;4.360;2022-09-27T07:45:24;10.30;99.90
20125;DHT22;10223;50.862;4.360;2022-09-27T07:47:51;10.30;99.90
20125;DHT22;10223;50.862;4.360;2022-09-27T07:50:19;10.40;99.90
20125;DHT22;10223;50.862;4.360;2022-09-27T07:52:49;10.50;99.90
20125;DHT22;10223;50.862;4.360;2022-09-27T07:55:18;10.60;99.90
20125;DHT22;10223;50.862;4.360;2022-09-27T07:57:45;10.60;99.90
20125;DHT22;10223;50.862;4.360;2022-09-27T08:00:14;10.60;99.90
20125;DHT22;10223;50.862;4.360;2022-09-27T08:02:41;10.50;99.90
20125;DHT22;10223;50.862;4.360;2022-09-27T08:05:09;10.40;99.90
20125;DHT22;10223;50.862;4.360;2022-09-27T08:07:37;10.40;99.90
20125;DHT22;10223;50.862;4.360;2022-09-27T08:10:07;10.30;99.90
20125;DHT22;10223;50.862;4.360;2022-09-27T08:12:34;10.30;99.90
20125;DHT22;10223;50.862;4.360;2022-09-27T08:15:01;10.20;99.90
20125;DHT22;10223;50.862;4.360;2022-09-27T08:17:29;10.30;99.90
20125;DHT22;10223;50.862;4.360;2022-09-27T08:19:56;10.30;99.90
20125;DHT22;10223;50.862;4.360;2022-09-27T08:22:23;10.10;99.90
20125;DHT22;10223;50.862;4.360;2022-09-27T08:24:50;10.20;99.90
20125;DHT22;10223;50.862;4.360;2022-09-27T08:27:18;10.20;99.90
20125;DHT22;10223;50.862;4.360;2022-09-27T08:29:45;10.20;99.90
20125;DHT22;10223;50.862;4.360;2022-09-27T08:32:12;10.30;99.90
20125;DHT22;10223;50.862;4.360;2022-09-27T08:34:39;10.40;99.90
20125;DHT22;10223;50.862;4.360;2022-09-27T08:37:06;10.40;99.90
20125;DHT22;10223;50.862;4.360;2022-09-27T08:39:33;10.40;99.90
20125;DHT22;10223;50.862;4.360;2022-09-27T08:42:07;10.40;99.90
20125;DHT22;10223;50.862;4.360;2022-09-27T08:44:46;10.30;99.90
20125;DHT22;10223;50.862;4.360;2022-09-27T08:47:17;10.30;99.90
20125;DHT22;10223;50.862;4.360;2022-09-27T08:49:51;10.40;99.90
20125;DHT22;10223;50.862;4.360;2022-09-27T08:52:24;10.50;99.90
20125;DHT22;10223;50.862;4.360;2022-09-27T08:54:55;10.60;99.90
20125;DHT22;10223;50.862;4.360;2022-09-27T08:57:23;10.70;99.90
20125;DHT22;10223;50.862;4.360;2022-09-27T09:00:00;10.70;99.90
20125;DHT22;10223;50.862;4.360;2022-09-27T09:02:28;10.70;99.90
20125;DHT22;10223;50.862;4.360;2022-09-27T09:04:58;10.80;99.90
20125;DHT22;10223;50.862;4.360;2022-09-27T09:07:39;10.70;99.90
20125;DHT22;10223;50.862;4.360;2022-09-27T09:10:21;10.60;99.90
20125;DHT22;10223;50.862;4.360;2022-09-27T09:13:20;10.50;99.90
20125;DHT22;10223;50.862;4.360;2022-09-27T09:16:00;10.50;99.90
20125;DHT22;10223;50.862;4.360;2022-09-27T09:18:43;10.60;99.90
20125;DHT22;10223;50.862;4.360;2022-09-27T09:21:21;10.60;99.90
20125;DHT22;10223;50.862;4.360;2022-09-27T09:24:02;10.60;99.90
20125;DHT22;10223;50.862;4.360;2022-09-27T09:26:38;10.60;99.90
20125;DHT22;10223;50.862;4.360;2022-09-27T09:29:23;10.60;99.90
20125;DHT22;10223;50.862;4.360;2022-09-27T09:32:01;10.60;99.90
20125;DHT22;10223;50.862;4.360;2022-09-27T09:34:35;10.50;99.90
20125;DHT22;10223;50.862;4.360;2022-09-27T09:37:07;10.50;99.90
20125;DHT22;10223;50.862;4.360;2022-09-27T09:39:40;10.60;99.90
20125;DHT22;10223;50.862;4.360;2022-09-27T09:42:12;10.40;99.90
20125;DHT22;10223;50.862;4.360;2022-09-27T09:44:47;10.40;99.90
20125;DHT22;10223;50.862;4.360;2022-09-27T09:47:28;10.40;99.90
20125;DHT22;10223;50.862;4.360;2022-09-27T09:49:57;10.40;99.90
20125;DHT22;10223;50.862;4.360;2022-09-27T09:52:38;10.30;99.90
20125;DHT22;10223;50.862;4.360;2022-09-27T09:55:14;10.40;99.90
20125;DHT22;10223;50.862;4.360;2022-09-27T09:57:59;10.40;99.90
20125;DHT22;10223;50.862;4.360;2022-09-27T10:00:28;10.60;99.90
20125;DHT22;10223;50.862;4.360;2022-09-27T10:02:58;10.70;99.90
20125;DHT22;10223;50.862;4.360;2022-09-27T10:05:26;10.90;99.90
20125;DHT22;10223;50.862;4.360;2022-09-27T10:07:56;11.00;99.90
20125;DHT22;10223;50.862;4.360;2022-09-27T10:10:24;11.10;99.90
20125;DHT22;10223;50.862;4.360;2022-09-27T10:12:52;11.40;99.90
20125;DHT22;10223;50.862;4.360;2022-09-27T10:15:21;11.80;99.90
20125;DHT22;10223;50.862;4.360;2022-09-27T10:17:51;12.10;99.90
20125;DHT22;10223;50.862;4.360;2022-09-27T10:20:29;12.20;99.90
20125;DHT22;10223;50.862;4.360;2022-09-27T10:23:03;12.30;99.90
20125;DHT22;10223;50.862;4.360;2022-09-27T10:25:45;12.40;99.90
20125;DHT22;10223;50.862;4.360;2022-09-27T10:28:34;12.50;99.90
20125;DHT22;10223;50.862;4.360;2022-09-27T10:31:04;12.60;99.90
20125;DHT22;10223;50.862;4.360;2022-09-27T10:33:31;12.60;99.90
20125;DHT22;10223;50.862;4.360;2022-09-27T10:36:00;12.50;99.90
20125;DHT22;10223;50.862;4.360;2022-09-27T10:38:29;12.40;99.90
20125;DHT22;10223;50.862;4.360;2022-09-27T10:41:14;12.40;99.90
20125;DHT22;10223;50.862;4.360;2022-09-27T10:43:41;12.50;99.90
20125;DHT22;10223;50.862;4.360;2022-09-27T10:46:14;12.60;99.90
20125;DHT22;10223;50.862;4.360;2022-09-27T10:48:42;12.60;99.90
20125;DHT22;10223;50.862;4.360;2022-09-27T10:51:23;12.70;99.90
20125;DHT22;10223;50.862;4.360;2022-09-27T10:53:51;12.70;99.90
20125;DHT22;10223;50.862;4.360;2022-09-27T10:56:23;12.70;99.90
20125;DHT22;10223;50.862;4.360;2022-09-27T10:58:53;12.90;99.90
20125;DHT22;10223;50.862;4.360;2022-09-27T11:01:20;13.00;99.90
20125;DHT22;10223;50.862;4.360;2022-09-27T11:03:49;13.20;99.90
20125;DHT22;10223;50.862;4.360;2022-09-27T11:06:28;13.50;99.90
20125;DHT22;10223;50.862;4.360;2022-09-27T11:09:11;13.80;99.90
20125;DHT22;10223;50.862;4.360;2022-09-27T11:11:43;13.80;99.90
20125;DHT22;10223;50.862;4.360;2022-09-27T11:14:18;13.60;99.90
20125;DHT22;10223;50.862;4.360;2022-09-27T11:20:06;13.00;99.90
20125;DHT22;10223;50.862;4.360;2022-09-27T11:25:42;12.60;99.90
20125;DHT22;10223;50.862;4.360;2022-09-27T11:28:22;12.40;99.90
20125;DHT22;10223;50.862;4.360;2022-09-27T11:30:59;12.40;99.90
20125;DHT22;10223;50.862;4.360;2022-09-27T11:33:47;12.40;99.90
20125;DHT22;10223;50.862;4.360;2022-09-27T11:36:25;12.30;99.90
20125;DHT22;10223;50.862;4.360;2022-09-27T11:39:00;12.30;99.90
20125;DHT22;10223;50.862;4.360;2022-09-27T11:41:39;12.30;99.90
20125;DHT22;10223;50.862;4.360;2022-09-27T11:44:30;12.40;99.90
20125;DHT22;10223;50.862;4.360;2022-09-27T11:47:06;12.50;99.90
20125;DHT22;10223;50.862;4.360;2022-09-27T11:52:42;13.00;99.90
20125;DHT22;10223;50.862;4.360;2022-09-27T11:55:19;13.20;99.90
20125;DHT22;10223;50.862;4.360;2022-09-27T11:57:58;13.20;99.90
20125;DHT22;10223;50.862;4.360;2022-09-27T12:00:37;13.20;99.90
20125;DHT22;10223;50.862;4.360;2022-09-27T12:03:29;13.10;99.90
20125;DHT22;10223;50.862;4.360;2022-09-27T12:06:06;12.80;99.90
20125;DHT22;10223;50.862;4.360;2022-09-27T12:11:26;12.70;99.90
20125;DHT22;10223;50.862;4.360;2022-09-27T12:14:00;12.60;99.90
20125;DHT22;10223;50.862;4.360;2022-09-27T12:16:29;12.90;99.90
20125;DHT22;10223;50.862;4.360;2022-09-27T12:18:57;13.00;99.90
20125;DHT22;10223;50.862;4.360;2022-09-27T12:21:26;13.10;99.90
20125;DHT22;10223;50.862;4.360;2022-09-27T12:23:56;13.20;99.90
20125;DHT22;10223;50.862;4.360;2022-09-27T12:26:27;13.40;99.90
20125;DHT22;10223;50.862;4.360;2022-09-27T12:28:58;13.50;99.90
20125;DHT22;10223;50.862;4.360;2022-09-27T12:31:30;13.80;99.90
20125;DHT22;10223;50.862;4.360;2022-09-27T12:34:05;14.00;99.90
20125;DHT22;10223;50.862;4.360;2022-09-27T12:36:40;14.00;99.90
20125;DHT22;10223;50.862;4.360;2022-09-27T12:39:14;14.20;99.90
20125;DHT22;10223;50.862;4.360;2022-09-27T12:41:47;14.50;99.90
20125;DHT22;10223;50.862;4.360;2022-09-27T12:44:17;14.60;99.90
20125;DHT22;10223;50.862;4.360;2022-09-27T12:46:53;14.70;99.90
20125;DHT22;10223;50.862;4.360;2022-09-27T12:49:28;14.80;99.90
20125;DHT22;10223;50.862;4.360;2022-09-27T12:52:03;14.80;99.90
20125;DHT22;10223;50.862;4.360;2022-09-27T12:54:56;14.80;99.90
20125;DHT22;10223;50.862;4.360;2022-09-27T12:57:32;14.60;99.90
20125;DHT22;10223;50.862;4.360;2022-09-27T13:00:11;14.40;99.90
20125;DHT22;10223;50.862;4.360;2022-09-27T13:06:06;14.20;99.90
20125;DHT22;10223;50.862;4.360;2022-09-27T13:08:52;14.20;99.90
20125;DHT22;10223;50.862;4.360;2022-09-27T13:11:25;13.80;99.90
20125;DHT22;10223;50.862;4.360;2022-09-27T13:13:56;13.80;99.90
20125;DHT22;10223;50.862;4.360;2022-09-27T13:16:26;13.80;99.90
20125;DHT22;10223;50.862;4.360;2022-09-27T13:18:55;13.80;99.90
20125;DHT22;10223;50.862;4.360;2022-09-27T13:21:54;13.90;99.90
20125;DHT22;10223;50.862;4.360;2022-09-27T13:24:30;14.00;99.90
20125;DHT22;10223;50.862;4.360;2022-09-27T13:26:57;14.00;99.90
20125;DHT22;10223;50.862;4.360;2022-09-27T13:29:30;14.20;99.90
20125;DHT22;10223;50.862;4.360;2022-09-27T13:32:18;14.50;99.90
20125;DHT22;10223;50.862;4.360;2022-09-27T13:34:48;14.80;99.90
20125;DHT22;10223;50.862;4.360;2022-09-27T13:37:35;14.70;99.90
20125;DHT22;10223;50.862;4.360;2022-09-27T13:40:28;14.50;99.90
20125;DHT22;10223;50.862;4.360;2022-09-27T13:43:35;14.40;99.90
20125;DHT22;10223;50.862;4.360;2022-09-27T13:46:05;14.40;99.90
20125;DHT22;10223;50.862;4.360;2022-09-27T13:48:48;14.40;99.90
20125;DHT22;10223;50.862;4.360;2022-09-27T13:51:22;14.30;99.90
20125;DHT22;10223;50.862;4.360;2022-09-27T13:53:58;14.50;99.90
20125;DHT22;10223;50.862;4.360;2022-09-27T13:56:48;14.50;99.90
20125;DHT22;10223;50.862;4.360;2022-09-27T13:59:17;14.40;99.90
20125;DHT22;10223;50.862;4.360;2022-09-27T14:01:48;14.50;99.90
20125;DHT22;10223;50.862;4.360;2022-09-27T14:04:21;14.70;99.90
20125;DHT22;10223;50.862;4.360;2022-09-27T14:06:52;15.00;99.90
20125;DHT22;10223;50.862;4.360;2022-09-27T14:09:25;15.40;99.90
20125;DHT22;10223;50.862;4.360;2022-09-27T14:11:56;15.70;99.90
20125;DHT22;10223;50.862;4.360;2022-09-27T14:14:26;15.90;99.90
20125;DHT22;10223;50.862;4.360;2022-09-27T14:16:55;15.90;99.90
20125;DHT22;10223;50.862;4.360;2022-09-27T14:19:25;15.70;99.90
20125;DHT22;10223;50.862;4.360;2022-09-27T14:21:53;15.70;99.90
20125;DHT22;10223;50.862;4.360;2022-09-27T14:24:22;15.50;99.90
20125;DHT22;10223;50.862;4.360;2022-09-27T14:27:04;15.80;99.90
20125;DHT22;10223;50.862;4.360;2022-09-27T14:29:32;16.30;99.90
20125;DHT22;10223;50.862;4.360;2022-09-27T14:32:03;16.50;99.90
20125;DHT22;10223;50.862;4.360;2022-09-27T14:34:31;16.40;99.90
20125;DHT22;10223;50.862;4.360;2022-09-27T14:36:58;16.30;99.90
20125;DHT22;10223;50.862;4.360;2022-09-27T14:39:43;16.00;99.90
20125;DHT22;10223;50.862;4.360;2022-09-27T14:42:18;15.70;99.90
20125;DHT22;10223;50.862;4.360;2022-09-27T14:44:46;15.30;99.90
20125;DHT22;10223;50.862;4.360;2022-09-27T14:47:17;15.20;99.90
20125;DHT22;10223;50.862;4.360;2022-09-27T14:49:48;15.10;99.90
20125;DHT22;10223;50.862;4.360;2022-09-27T14:52:18;14.90;99.90
20125;DHT22;10223;50.862;4.360;2022-09-27T14:54:55;14.60;99.90
20125;DHT22;10223;50.862;4.360;2022-09-27T14:57:22;14.50;99.90
20125;DHT22;10223;50.862;4.360;2022-09-27T14:59:49;14.30;99.90
20125;DHT22;10223;50.862;4.360;2022-09-27T15:02:18;14.20;99.90
20125;DHT22;10223;50.862;4.360;2022-09-27T15:04:49;14.00;99.90
20125;DHT22;10223;50.862;4.360;2022-09-27T15:07:17;13.70;99.90
20125;DHT22;10223;50.862;4.360;2022-09-27T15:09:44;13.70;99.90
20125;DHT22;10223;50.862;4.360;2022-09-27T15:12:12;13.70;99.90
20125;DHT22;10223;50.862;4.360;2022-09-27T15:14:41;13.80;99.90
20125;DHT22;10223;50.862;4.360;2022-09-27T15:17:15;13.80;99.90
20125;DHT22;10223;50.862;4.360;2022-09-27T15:19:57;13.70;99.90
20125;DHT22;10223;50.862;4.360;2022-09-27T15:22:33;13.60;99.90
20125;DHT22;10223;50.862;4.360;2022-09-27T15:25:06;13.50;99.90
20125;DHT22;10223;50.862;4.360;2022-09-27T15:27:33;13.50;99.90
20125;DHT22;10223;50.862;4.360;2022-09-27T15:30:00;13.30;99.90
20125;DHT22;10223;50.862;4.360;2022-09-27T15:32:28;13.40;99.90
20125;DHT22;10223;50.862;4.360;2022-09-27T15:34:56;13.60;99.90
20125;DHT22;10223;50.862;4.360;2022-09-27T15:37:34;13.80;99.90
20125;DHT22;10223;50.862;4.360;2022-09-27T15:43:19;13.40;99.90
20125;DHT22;10223;50.862;4.360;2022-09-27T15:45:49;13.40;99.90
20125;DHT22;10223;50.862;4.360;2022-09-27T15:48:18;13.40;99.90
20125;DHT22;10223;50.862;4.360;2022-09-27T15:50:47;13.20;99.90
20125;DHT22;10223;50.862;4.360;2022-09-27T15:53:42;13.30;99.90
20125;DHT22;10223;50.862;4.360;2022-09-27T15:56:12;13.60;99.90
20125;DHT22;10223;50.862;4.360;2022-09-27T15:58:39;13.60;99.90
20125;DHT22;10223;50.862;4.360;2022-09-27T16:01:13;13.70;99.90
20125;DHT22;10223;50.862;4.360;2022-09-27T16:03:41;13.50;99.90
20125;DHT22;10223;50.862;4.360;2022-09-27T16:06:12;13.60;99.90
20125;DHT22;10223;50.862;4.360;2022-09-27T16:08:39;13.50;99.90
20125;DHT22;10223;50.862;4.360;2022-09-27T16:11:11;13.40;99.90
20125;DHT22;10223;50.862;4.360;2022-09-27T16:13:39;13.40;99.90
20125;DHT22;10223;50.862;4.360;2022-09-27T16:16:15;13.50;99.90
20125;DHT22;10223;50.862;4.360;2022-09-27T16:18:43;13.60;99.90